createdAt,value
2022-09-22T00:02:44.611Z,98900.5
2022-09-22T00:08:19.717Z,98897.2
2022-09-22T00:13:55.757Z,98897.2
2022-09-22T00:19:32.974Z,98896.3
2022-09-22T00:25:08.138Z,98895.5
2022-09-22T00:31:01.316Z,98890.3
2022-09-22T00:36:36.176Z,98889.5
2022-09-22T00:42:10.999Z,98884.8
2022-09-22T00:48:04.700Z,98881.7
2022-09-22T00:54:26.528Z,98879.2
2022-09-22T01:00:01.606Z,98874.5
2022-09-22T01:05:36.273Z,98871.9
2022-09-22T01:11:11.426Z,98872.3
2022-09-22T01:16:50.134Z,98871
2022-09-22T01:22:25.162Z,98869.1
2022-09-22T01:28:08.704Z,98864.1
2022-09-22T01:33:48.435Z,98865.2
2022-09-22T01:39:24.446Z,98870
2022-09-22T01:44:59.244Z,98870.2
2022-09-22T01:50:34.655Z,98867.2
2022-09-22T01:56:10.543Z,98861.5
2022-09-22T02:01:45.644Z,98865.7
2022-09-22T02:07:32.043Z,98866.5
2022-09-22T02:13:14.387Z,98866.2
2022-09-22T02:18:50.225Z,98865.4
2022-09-22T02:24:48.382Z,98864.5
2022-09-22T02:30:27.923Z,98867.1
2022-09-22T02:36:02.670Z,98866.1
2022-09-22T02:41:37.756Z,98866.8
2022-09-22T02:47:12.790Z,98864.3
2022-09-22T02:52:47.876Z,98864.4
2022-09-22T02:58:22.448Z,98856.6
2022-09-22T03:04:01.469Z,98852.4
2022-09-22T03:10:09.838Z,98852
2022-09-22T03:15:44.965Z,98852.7
2022-09-22T03:21:29.800Z,98855.1
2022-09-22T03:27:04.616Z,98859
2022-09-22T03:32:40.554Z,98861.1
2022-09-22T03:38:15.817Z,98860.7
2022-09-22T03:44:02.322Z,98863.6
2022-09-22T03:49:38.551Z,98862.2
2022-09-22T03:55:13.936Z,98856.2
2022-09-22T04:00:55.805Z,98860.5
2022-09-22T04:06:31.617Z,98864.3
2022-09-22T04:12:06.548Z,98872
2022-09-22T04:17:41.481Z,98868.4
2022-09-22T04:23:17.594Z,98864.4
2022-09-22T04:29:00.829Z,98864
2022-09-22T04:34:42.584Z,98864.6
2022-09-22T04:40:17.591Z,98862.6
2022-09-22T04:45:53.687Z,98867.5
2022-09-22T04:51:31.953Z,98869.6
2022-09-22T04:57:06.959Z,98874.6
2022-09-22T05:02:42.581Z,98873.9
2022-09-22T05:08:17.948Z,98876
2022-09-22T05:13:52.949Z,98877.6
2022-09-22T05:19:28.127Z,98871.8
2022-09-22T05:25:03.123Z,98872.3
2022-09-22T05:30:58.699Z,98875.4
2022-09-22T05:36:42.449Z,98875.3
2022-09-22T05:42:17.089Z,98875.2
2022-09-22T05:47:54.445Z,98873.3
2022-09-22T05:53:29.246Z,98873
2022-09-22T05:59:09.438Z,98871.3
2022-09-22T06:04:47.463Z,98877.2
2022-09-22T06:10:28.387Z,98878.8
2022-09-22T06:16:03.838Z,98877.7
2022-09-22T06:23:19.578Z,98875.3
2022-09-22T06:28:54.431Z,98879.4
2022-09-22T06:34:29.423Z,98878.9
2022-09-22T06:40:18.475Z,98876.8
2022-09-22T06:45:55.868Z,98879.2
2022-09-22T06:51:31.333Z,98878.3
2022-09-22T06:57:06.288Z,98884
2022-09-22T07:02:42.306Z,98886.5
2022-09-22T07:08:17.087Z,98891.5
2022-09-22T07:13:53.038Z,98896.7
2022-09-22T07:19:28.927Z,98899.6
2022-09-22T07:25:05.004Z,98895.8
2022-09-22T07:30:41.020Z,98898.1
2022-09-22T07:36:16.233Z,98896.2
2022-09-22T07:41:51.357Z,98892.9
2022-09-22T07:47:30.401Z,98897.5
2022-09-22T07:53:06.012Z,98903
2022-09-22T07:58:43.877Z,98907.6
2022-09-22T08:04:19.314Z,98914.8
2022-09-22T08:09:55.369Z,98917.6
2022-09-22T08:15:30.894Z,98917.5
2022-09-22T08:21:06.593Z,98918.3
2022-09-22T08:26:51.616Z,98912.5
2022-09-22T08:32:26.966Z,98911.5
2022-09-22T08:38:03.761Z,98909.9
2022-09-22T08:43:44.306Z,98914.6
2022-09-22T08:49:20.219Z,98916
2022-09-22T08:54:55.320Z,98915.6
2022-09-22T09:00:31.468Z,98918.4
2022-09-22T09:06:07.577Z,98923.4
2022-09-22T09:12:04.787Z,98925.4
2022-09-22T09:17:37.634Z,98921.2
2022-09-22T09:23:12.537Z,98919
2022-09-22T09:28:47.353Z,98916.5
2022-09-22T09:34:23.043Z,98913.5
2022-09-22T09:39:58.749Z,98912.1
2022-09-22T09:45:33.594Z,98903.7
2022-09-22T09:51:08.818Z,98897.6
2022-09-22T09:56:43.658Z,98895.7
2022-09-22T10:02:18.763Z,98895.8
2022-09-22T10:07:54.617Z,98892.1
2022-09-22T10:13:34.330Z,98889.3
2022-09-22T10:19:09.154Z,98887.9
2022-09-22T10:24:45.888Z,98879.6
2022-09-22T10:30:21.031Z,98879.9
2022-09-22T10:35:55.988Z,98878
2022-09-22T10:41:31.086Z,98866.7
2022-09-22T10:47:05.952Z,98863
2022-09-22T10:52:41.990Z,98855.9
2022-09-22T10:58:16.998Z,98854
2022-09-22T11:03:53.967Z,98852.2
2022-09-22T11:09:35.215Z,98852.1
2022-09-22T11:15:10.807Z,98850.3
2022-09-22T11:20:45.920Z,98846.1
2022-09-22T11:26:21.395Z,98840.9
2022-09-22T11:31:56.588Z,98836.5
2022-09-22T11:37:31.531Z,98833.9
2022-09-22T11:43:08.642Z,98833
2022-09-22T11:48:43.883Z,98831.4
2022-09-22T11:54:18.785Z,98833.9
2022-09-22T11:59:53.483Z,98824.3
2022-09-22T12:05:28.774Z,98815.8
2022-09-22T12:11:03.747Z,98817.9
2022-09-22T12:16:40.043Z,98810.5
2022-09-22T12:22:15.132Z,98804
2022-09-22T12:27:49.944Z,98796.9
2022-09-22T12:33:24.824Z,98791.7
2022-09-22T12:38:59.857Z,98784.8
2022-09-22T12:44:34.572Z,98788.1
2022-09-22T12:50:09.598Z,98782.2
2022-09-22T12:55:44.437Z,98779.7
2022-09-22T13:01:20.312Z,98776.6
2022-09-22T13:07:08.079Z,98767.3
2022-09-22T13:12:44.908Z,98760.3
2022-09-22T13:18:23.363Z,98758.3
2022-09-22T13:23:58.653Z,98750.1
2022-09-22T13:29:38.974Z,98739.9
2022-09-22T13:35:15.574Z,98737.4
2022-09-22T13:40:51.076Z,98729.7
2022-09-22T13:46:27.953Z,98722.6
2022-09-22T13:52:04.338Z,98719.5
2022-09-22T13:57:41.103Z,98712.9
2022-09-22T14:03:16.142Z,98703
2022-09-22T14:08:51.021Z,98705.7
2022-09-22T14:14:26.004Z,98702
2022-09-22T14:20:01.764Z,98696.7
2022-09-22T14:25:42.767Z,98693.8
2022-09-22T14:31:24.000Z,98688.2
2022-09-22T14:36:59.900Z,98681.8
2022-09-22T14:42:35.324Z,98679.1
2022-09-22T14:48:20.684Z,98673
2022-09-22T14:53:56.002Z,98672
2022-09-22T14:59:42.326Z,98666.1
2022-09-22T15:05:30.874Z,98665.9
2022-09-22T15:11:10.871Z,98668.5
2022-09-22T15:16:48.623Z,98662.5
2022-09-22T15:22:45.050Z,98656.7
2022-09-22T15:28:27.986Z,98660.7
2022-09-22T15:34:14.325Z,98659.5
2022-09-22T15:39:54.098Z,98658.6
2022-09-22T15:45:31.806Z,98661.9
2022-09-22T15:51:08.906Z,98661.5
2022-09-22T15:56:47.424Z,98654.2
2022-09-22T16:02:25.606Z,98653.3
2022-09-22T16:08:07.038Z,98653.2
2022-09-22T16:13:41.721Z,98658.8
2022-09-22T16:19:17.227Z,98655.9
2022-09-22T16:24:55.343Z,98652
2022-09-22T16:30:30.260Z,98657.1
2022-09-22T16:36:05.141Z,98660.4
2022-09-22T16:41:39.966Z,98660.8
2022-09-22T16:47:14.742Z,98663.7
2022-09-22T16:52:49.657Z,98662
2022-09-22T16:58:24.725Z,98660.5
2022-09-22T17:03:59.786Z,98661.9
2022-09-22T17:09:35.154Z,98660.4
2022-09-22T17:15:09.816Z,98670.5
2022-09-22T17:20:44.858Z,98668.2
2022-09-22T17:26:20.174Z,98669.2
2022-09-22T17:31:55.619Z,98677.3
2022-09-22T17:37:30.333Z,98682.1
2022-09-22T17:43:05.602Z,98685.6
2022-09-22T17:48:40.947Z,98691.1
2022-09-22T17:54:17.388Z,98690.8
2022-09-22T17:59:52.481Z,98688.8
2022-09-22T18:05:27.765Z,98683.3
2022-09-22T18:11:03.139Z,98689.8
2022-09-22T18:16:38.569Z,98688.8
2022-09-22T18:22:14.277Z,98696.3
2022-09-22T18:27:49.232Z,98702.6
2022-09-22T18:33:24.451Z,98712.7
2022-09-22T18:38:59.346Z,98716.7
2022-09-22T18:44:34.123Z,98723.5
2022-09-22T18:50:09.118Z,98731.3
2022-09-22T18:55:44.030Z,98740.5
2022-09-22T19:01:21.116Z,98746.3
2022-09-22T19:06:58.528Z,98750
2022-09-22T19:12:59.724Z,98747.1
2022-09-22T19:18:37.105Z,98747.7
2022-09-22T19:24:16.873Z,98762.4
2022-09-22T19:30:29.619Z,98765.8
2022-09-22T19:36:06.505Z,98768.8
2022-09-22T19:41:42.433Z,98774.8
2022-09-22T19:47:18.466Z,98778.2
2022-09-22T19:52:53.648Z,98778.4
2022-09-22T19:58:28.369Z,98783
2022-09-22T20:04:04.481Z,98787
2022-09-22T20:09:40.688Z,98789.7
2022-09-22T20:15:15.556Z,98790.5
2022-09-22T20:20:51.639Z,98794
2022-09-22T20:26:26.401Z,98795.9
2022-09-22T20:32:01.305Z,98794.1
2022-09-22T20:37:38.930Z,98795.6
2022-09-22T20:43:14.085Z,98800.7
2022-09-22T20:48:48.959Z,98795.7
2022-09-22T20:54:27.318Z,98795.2
2022-09-22T21:00:03.136Z,98791.8
2022-09-22T21:05:37.910Z,98783.4
2022-09-22T21:11:35.511Z,98782.4
2022-09-22T21:17:08.072Z,98788.6
2022-09-22T21:22:43.984Z,98792.7
2022-09-22T21:28:19.150Z,98793.1
2022-09-22T21:33:53.907Z,98796.1
2022-09-22T21:39:28.741Z,98791.9
2022-09-22T21:45:04.962Z,98789
2022-09-22T21:50:39.846Z,98794.1
2022-09-22T21:56:15.011Z,98790.8
2022-09-22T22:01:59.283Z,98787.4
2022-09-22T22:07:34.244Z,98788.4
2022-09-22T22:13:31.938Z,98782.8
2022-09-22T22:19:04.434Z,98784
2022-09-22T22:24:40.185Z,98778.3
2022-09-22T22:30:15.122Z,98774.7
2022-09-22T22:35:50.379Z,98775.7
2022-09-22T22:41:46.492Z,98775.7
2022-09-22T22:47:21.983Z,98773
2022-09-22T22:52:57.763Z,98766.5
2022-09-22T22:58:42.107Z,98765
2022-09-22T23:04:17.663Z,98765.3
2022-09-22T23:09:55.848Z,98759.6
2022-09-22T23:15:31.278Z,98754.8
2022-09-22T23:21:06.933Z,98751
2022-09-22T23:26:47.988Z,98746.1
2022-09-22T23:32:23.012Z,98734.6
2022-09-22T23:37:59.294Z,98727.1
2022-09-22T23:43:34.462Z,98718.9
2022-09-22T23:49:10.220Z,98710.4
2022-09-22T23:54:46.567Z,98711
